Howellville, Texas
Current Conditions -  °F | °C
As of 3:53 PM on Sunday 23 Nov 2014 (Local Time) from KSGR Reporting Station
Clear Clear  
Wind Chill: 80°   Ceiling: Unl
Heat Index: 80°   Visibility: 10mi
Dew Point: 54°   Wind: 12mph
Humidity: 40%   Direction: 220°SW
Pressure: 29.55"   Gusts: NA
Location:  29.7106°N, 95.5963°W
Report Text: KSGR 232153Z 22010KT 10SM CLR 27/12 A2955 RMK AO2 SLP007 T02670122
Loading
Personal Weather Stations






























Interactive Weather Map New forecast layout! Learn more

10-Day Weather Forecast

Advertisements
Track Severe Weather on mobile